Time;durP1;ratioP1;P1;durP2;ratioP2;P2;SDS_P1;SDS_P2;PMS_P1;PMS_P2;Temp;Humidity;BMP_temperature;BMP_pressure;BME280_temperature;BME280_humidity;BME280_pressure;Samples;Min_cycle;Max_cycle;Signal;HPM_P1;HPM_P2
2023/11/20 00:01:48;;;;;;;1.13;0.95;;;12.20;99.90;;;;;;5053618;28;20044;-76
2023/11/20 00:04:14;;;;;;;7.20;1.48;;;12.20;99.90;;;;;;5039469;28;20039;-77
2023/11/20 00:06:40;;;;;;;1.65;0.75;;;12.20;99.90;;;;;;5047466;28;20048;-76
2023/11/20 00:09:10;;;;;;;1.98;0.95;;;12.20;99.90;;;;;;5042955;28;20378;-76
2023/11/20 00:11:36;;;;;;;0.15;0.15;;;12.30;99.90;;;;;;5046652;28;20036;-79
2023/11/20 00:14:03;;;;;;;0.10;0.10;;;12.30;99.90;;;;;;5064344;28;20044;-75
2023/11/20 00:16:29;;;;;;;3.20;1.00;;;12.30;99.90;;;;;;5089453;28;20027;-78
2023/11/20 00:18:55;;;;;;;4.18;1.27;;;12.30;99.90;;;;;;5035408;28;20461;-77
2023/11/20 00:21:22;;;;;;;0.10;0.10;;;12.40;99.90;;;;;;5072768;28;20028;-76
2023/11/20 00:23:48;;;;;;;0.68;0.68;;;12.40;99.90;;;;;;5048033;28;20036;-77
2023/11/20 00:26:14;;;;;;;0.35;0.35;;;12.40;99.90;;;;;;5052837;28;20055;-75
2023/11/20 00:28:44;;;;;;;6.78;0.95;;;12.40;99.90;;;;;;5068018;28;20032;-77
2023/11/20 00:31:17;;;;;;;2.75;0.77;;;12.40;99.90;;;;;;5050189;28;20045;-75
2023/11/20 00:33:43;;;;;;;2.17;0.70;;;12.50;99.90;;;;;;5059836;28;20122;-75
2023/11/20 00:36:10;;;;;;;0.10;0.10;;;12.40;99.90;;;;;;5057655;28;20036;-76
2023/11/20 00:38:36;;;;;;;1.17;0.75;;;12.40;99.90;;;;;;5058084;28;20051;-76
2023/11/20 00:41:04;;;;;;;0.17;0.17;;;12.40;99.90;;;;;;5038397;28;20462;-76
2023/11/20 00:43:33;;;;;;;0.75;0.75;;;12.30;1.00;;;;;;5073524;28;20386;-76
2023/11/20 00:46:00;;;;;;;5.50;1.33;;;12.30;1.00;;;;;;5042237;28;20032;-76
2023/11/20 00:48:27;;;;;;;0.30;0.30;;;12.40;1.00;;;;;;5051720;28;20045;-76
2023/11/20 00:50:54;;;;;;;1.15;1.08;;;12.30;1.00;;;;;;5053016;28;20043;-76
2023/11/20 00:53:21;;;;;;;0.68;0.40;;;12.30;1.00;;;;;;5068976;28;20367;-76
2023/11/20 00:55:47;;;;;;;0.82;0.60;;;12.30;1.00;;;;;;5039759;28;20037;-76
2023/11/20 00:58:13;;;;;;;0.75;0.50;;;12.30;1.00;;;;;;5054010;28;20045;-76
2023/11/20 01:00:40;;;;;;;0.75;0.63;;;12.40;1.00;;;;;;5077670;28;20051;-74
2023/11/20 01:03:06;;;;;;;0.30;0.30;;;12.40;1.00;;;;;;5056162;28;20036;-76
2023/11/20 01:05:32;;;;;;;0.10;0.10;;;12.40;1.00;;;;;;5056377;28;20033;-76
2023/11/20 01:07:59;;;;;;;0.82;0.75;;;12.30;1.00;;;;;;5073293;28;20248;-78
2023/11/20 01:10:25;;;;;;;0.10;0.10;;;12.30;1.00;;;;;;5058593;28;20084;-77
2023/11/20 01:12:52;;;;;;;0.17;0.17;;;12.30;1.00;;;;;;5057140;28;20437;-77
2023/11/20 01:15:18;;;;;;;0.20;0.20;;;12.30;1.00;;;;;;5061466;28;20429;-77
2023/11/20 01:17:44;;;;;;;0.10;0.10;;;12.30;1.00;;;;;;5083079;28;20039;-78
2023/11/20 01:20:11;;;;;;;0.10;0.10;;;12.40;1.00;;;;;;5056088;28;20037;-77
2023/11/20 01:22:38;;;;;;;1.50;0.75;;;12.40;1.00;;;;;;5072697;28;20382;-79
2023/11/20 01:25:04;;;;;;;0.47;0.40;;;12.40;1.00;;;;;;5056516;28;20039;-77
2023/11/20 01:27:31;;;;;;;1.00;1.00;;;12.30;1.00;;;;;;5048243;28;20048;-75
2023/11/20 01:29:57;;;;;;;0.10;0.10;;;12.30;1.00;;;;;;5066545;28;20025;-78
2023/11/20 01:32:24;;;;;;;0.20;0.20;;;12.20;1.00;;;;;;5059248;28;20036;-77
2023/11/20 01:34:53;;;;;;;0.95;0.45;;;12.20;1.00;;;;;;5054390;28;20040;-79
2023/11/20 01:37:19;;;;;;;0.40;0.38;;;12.20;1.00;;;;;;5041154;28;20036;-78
2023/11/20 01:39:46;;;;;;;1.60;0.85;;;12.20;1.00;;;;;;5063549;28;20036;-77
2023/11/20 01:42:12;;;;;;;0.08;0.08;;;12.20;1.00;;;;;;5047421;28;20465;-76
2023/11/20 01:44:40;;;;;;;1.65;0.75;;;12.10;1.00;;;;;;5043375;28;20032;-76
2023/11/20 01:47:07;;;;;;;0.57;0.43;;;12.10;1.00;;;;;;5070096;28;20051;-75
2023/11/20 01:49:33;;;;;;;1.30;1.10;;;12.10;1.00;;;;;;5076764;28;20465;-76
2023/11/20 01:52:02;;;;;;;3.92;0.60;;;12.10;1.00;;;;;;5044721;28;20245;-75
2023/11/20 01:54:28;;;;;;;1.00;0.40;;;12.10;1.00;;;;;;5061289;28;20025;-75
2023/11/20 01:56:55;;;;;;;0.93;0.85;;;12.10;1.00;;;;;;5052940;28;20037;-77
2023/11/20 01:59:22;;;;;;;0.60;0.60;;;12.00;1.00;;;;;;5026082;28;20481;-77
2023/11/20 02:01:48;;;;;;;0.25;0.25;;;12.00;1.00;;;;;;5038624;28;20048;-76
2023/11/20 02:04:15;;;;;;;5.72;0.85;;;12.00;1.00;;;;;;5058083;28;20449;-75
2023/11/20 02:06:43;;;;;;;0.50;0.45;;;12.10;1.00;;;;;;5059818;28;20044;-75
2023/11/20 02:09:09;;;;;;;0.57;0.57;;;12.00;1.00;;;;;;5075675;28;20043;-75
2023/11/20 02:11:35;;;;;;;0.30;0.30;;;12.00;1.00;;;;;;5063447;28;20126;-74
2023/11/20 02:14:02;;;;;;;0.10;0.10;;;12.00;1.00;;;;;;5074620;28;20047;-76
2023/11/20 02:16:28;;;;;;;0.52;0.45;;;12.00;1.00;;;;;;5061348;28;20059;-74
2023/11/20 02:18:55;;;;;;;1.77;1.67;;;12.00;1.00;;;;;;5052974;28;20044;-76
2023/11/20 02:21:21;;;;;;;0.80;0.80;;;12.00;1.00;;;;;;5066661;28;20074;-78
2023/11/20 02:23:47;;;;;;;1.30;0.57;;;12.10;1.00;;;;;;5065148;28;20044;-76
2023/11/20 02:26:32;;;;;;;2.30;1.27;;;12.00;1.00;;;;;;5038064;28;20033;-77
2023/11/20 02:29:33;;;;;;;0.20;0.20;;;12.10;1.00;;;;;;5039591;28;20405;-78
2023/11/20 02:31:59;;;;;;;0.88;0.88;;;12.10;1.00;;;;;;5035131;28;20147;-77
2023/11/20 02:34:26;;;;;;;0.35;0.35;;;12.10;1.00;;;;;;5064330;28;20036;-76
2023/11/20 02:36:54;;;;;;;2.75;1.13;;;12.10;1.00;;;;;;5044340;28;20036;-77
2023/11/20 02:39:20;;;;;;;0.10;0.10;;;12.10;1.00;;;;;;5071204;28;20127;-78
2023/11/20 02:41:46;;;;;;;0.85;0.70;;;12.10;1.00;;;;;;5060861;28;20028;-76
2023/11/20 02:44:13;;;;;;;0.35;0.25;;;12.10;1.00;;;;;;5039039;28;20041;-77
2023/11/20 02:46:39;;;;;;;0.10;0.10;;;12.10;1.00;;;;;;5048948;28;20032;-76
2023/11/20 02:49:05;;;;;;;2.28;1.13;;;12.10;1.00;;;;;;5075256;28;20033;-77
2023/11/20 02:51:32;;;;;;;1.77;0.85;;;12.10;1.00;;;;;;5083052;28;20056;-77
2023/11/20 02:53:58;;;;;;;1.58;1.40;;;12.10;1.00;;;;;;5056977;28;20449;-78
2023/11/20 02:56:25;;;;;;;1.58;1.08;;;12.00;1.00;;;;;;5070340;28;20453;-78
2023/11/20 02:58:51;;;;;;;1.95;1.27;;;12.00;1.00;;;;;;5041868;28;20040;-77
2023/11/20 03:01:18;;;;;;;1.30;0.80;;;12.00;3.70;;;;;;5055987;28;20044;-76
2023/11/20 03:03:46;;;;;;;3.65;1.58;;;12.00;1.00;;;;;;5056855;28;20041;-77
2023/11/20 03:06:12;;;;;;;2.45;1.35;;;12.00;5.10;;;;;;5053201;28;20044;-77
2023/11/20 03:08:39;;;;;;;0.98;0.90;;;12.00;8.50;;;;;;5042246;28;20045;-77
2023/11/20 03:11:05;;;;;;;1.98;1.80;;;12.00;19.50;;;;;;5054288;28;20465;-76
2023/11/20 03:13:32;;;;;;;3.92;1.25;;;11.90;22.60;;;;;;5077052;28;20485;-77
2023/11/20 03:15:59;;;;;;;0.88;0.75;;;11.90;26.70;;;;;;5064891;28;20492;-77
2023/11/20 03:18:25;;;;;;;1.17;0.85;;;11.90;26.10;;;;;;5036103;28;20049;-77
2023/11/20 03:20:52;;;;;;;0.73;0.73;;;11.90;38.60;;;;;;5052755;28;20033;-77
2023/11/20 03:23:19;;;;;;;0.50;0.50;;;11.90;43.40;;;;;;5069269;28;20055;-77
2023/11/20 03:25:45;;;;;;;0.10;0.10;;;11.90;46.60;;;;;;5062104;28;20507;-77
2023/11/20 03:28:11;;;;;;;3.08;0.40;;;11.80;52.00;;;;;;5062814;28;20051;-77
2023/11/20 03:30:38;;;;;;;0.65;0.65;;;11.90;39.50;;;;;;5068730;28;20353;-76
2023/11/20 03:33:04;;;;;;;2.00;1.55;;;11.90;38.40;;;;;;5069319;28;20024;-77
2023/11/20 03:35:30;;;;;;;0.10;0.10;;;11.90;39.70;;;;;;5058346;28;20394;-77
2023/11/20 03:37:57;;;;;;;3.20;1.70;;;11.80;46.50;;;;;;5055317;28;20055;-78
2023/11/20 03:40:23;;;;;;;4.75;1.52;;;11.80;55.00;;;;;;5043161;28;20043;-77
2023/11/20 03:42:49;;;;;;;1.45;1.27;;;11.70;57.80;;;;;;5040618;28;20052;-77
2023/11/20 03:45:16;;;;;;;0.50;0.50;;;11.80;59.40;;;;;;5053370;28;20040;-77
2023/11/20 03:47:42;;;;;;;1.15;0.73;;;11.70;60.90;;;;;;5073570;28;20044;-77
2023/11/20 03:50:09;;;;;;;0.55;0.55;;;11.70;68.70;;;;;;5042823;28;20047;-77
2023/11/20 03:52:35;;;;;;;1.00;0.90;;;11.80;83.60;;;;;;5058490;28;20045;-77
2023/11/20 03:55:01;;;;;;;0.10;0.10;;;11.70;80.60;;;;;;5054003;28;20033;-76
2023/11/20 03:57:27;;;;;;;0.40;0.40;;;11.80;75.50;;;;;;5070482;28;20032;-77
2023/11/20 03:59:53;;;;;;;1.02;0.52;;;11.70;72.00;;;;;;5073622;28;20032;-77
2023/11/20 04:02:20;;;;;;;0.32;0.32;;;11.70;67.80;;;;;;5056833;28;20036;-77
2023/11/20 04:04:46;;;;;;;7.03;2.38;;;11.80;80.60;;;;;;5053888;28;20389;-77
2023/11/20 04:07:12;;;;;;;13.55;1.85;;;11.80;72.70;;;;;;5057632;28;20024;-77
2023/11/20 04:09:40;;;;;;;2.30;1.95;;;11.70;63.40;;;;;;5040489;28;20057;-77
2023/11/20 04:12:06;;;;;;;2.58;1.83;;;11.80;65.70;;;;;;5071112;28;20448;-78
2023/11/20 04:14:32;;;;;;;3.80;0.93;;;11.70;64.50;;;;;;5073103;28;20028;-77
2023/11/20 04:16:59;;;;;;;2.53;0.98;;;11.80;69.20;;;;;;5053554;28;20036;-77
2023/11/20 04:19:25;;;;;;;0.70;0.30;;;11.70;62.80;;;;;;5060426;28;20036;-77
2023/11/20 04:21:52;;;;;;;0.93;0.85;;;11.70;57.80;;;;;;5059504;28;20043;-77
2023/11/20 04:24:18;;;;;;;1.58;1.20;;;11.70;49.10;;;;;;5071328;28;20024;-78
2023/11/20 04:26:44;;;;;;;0.25;0.25;;;11.80;52.40;;;;;;5072682;28;20043;-77
2023/11/20 04:29:11;;;;;;;0.10;0.10;;;11.70;53.50;;;;;;5070118;28;20047;-77
2023/11/20 04:31:37;;;;;;;0.10;0.10;;;11.70;42.30;;;;;;5062555;28;20465;-77
2023/11/20 04:34:06;;;;;;;0.65;0.65;;;11.80;35.60;;;;;;5074154;28;20036;-77
2023/11/20 04:36:32;;;;;;;0.95;0.82;;;11.70;29.40;;;;;;5052312;28;20048;-76
2023/11/20 04:38:59;;;;;;;0.10;0.10;;;11.70;20.90;;;;;;5041753;28;20044;-77
2023/11/20 04:41:25;;;;;;;0.75;0.60;;;11.80;18.20;;;;;;5058791;28;20036;-78
2023/11/20 04:43:51;;;;;;;1.25;0.63;;;11.80;19.50;;;;;;5076374;28;20028;-77
2023/11/20 04:46:18;;;;;;;0.10;0.10;;;11.70;18.00;;;;;;5073882;28;20024;-77
2023/11/20 04:48:46;;;;;;;0.38;0.38;;;11.70;16.90;;;;;;5070014;28;20039;-78
2023/11/20 04:51:22;;;;;;;0.10;0.10;;;11.70;5.70;;;;;;5054533;28;20052;-78
2023/11/20 04:53:49;;;;;;;0.47;0.47;;;11.70;5.80;;;;;;5052913;28;21533;-79
2023/11/20 04:56:15;;;;;;;0.45;0.45;;;11.70;5.10;;;;;;5069011;28;20025;-77
2023/11/20 04:58:44;;;;;;;0.85;0.82;;;11.80;1.00;;;;;;5057970;28;20028;-78
2023/11/20 05:01:11;;;;;;;1.38;0.70;;;11.80;1.00;;;;;;5050198;28;20048;-77
2023/11/20 05:03:37;;;;;;;0.15;0.15;;;11.80;1.00;;;;;;5073389;28;20025;-78
2023/11/20 05:06:06;;;;;;;0.10;0.10;;;11.80;1.00;;;;;;5053842;28;20037;-78
2023/11/20 05:08:33;;;;;;;0.30;0.30;;;11.80;1.00;;;;;;5053450;28;20052;-78
2023/11/20 05:10:59;;;;;;;1.40;0.85;;;11.80;1.00;;;;;;5036466;28;20039;-77
2023/11/20 05:13:25;;;;;;;0.38;0.38;;;11.80;1.00;;;;;;5046392;28;20041;-79
2023/11/20 05:15:52;;;;;;;0.20;0.20;;;11.90;1.00;;;;;;5056487;28;20044;-78
2023/11/20 05:18:18;;;;;;;0.13;0.13;;;11.80;1.00;;;;;;5037131;28;20048;-76
2023/11/20 05:20:44;;;;;;;0.10;0.10;;;11.90;1.00;;;;;;5066334;28;20369;-77
2023/11/20 05:23:11;;;;;;;0.20;0.20;;;11.80;1.00;;;;;;5058881;28;20040;-76
2023/11/20 05:25:37;;;;;;;0.20;0.20;;;11.80;1.00;;;;;;5045344;28;20032;-75
2023/11/20 05:28:03;;;;;;;0.47;0.47;;;11.80;1.00;;;;;;5079630;28;20474;-76
2023/11/20 05:30:30;;;;;;;0.10;0.10;;;11.80;1.00;;;;;;5078656;28;20029;-83
2023/11/20 05:32:59;;;;;;;0.10;0.10;;;11.70;1.00;;;;;;5083737;28;20051;-76
2023/11/20 05:35:25;;;;;;;0.50;0.40;;;11.80;1.00;;;;;;5064065;28;20037;-75
2023/11/20 05:37:51;;;;;;;0.43;0.43;;;11.80;1.00;;;;;;5077514;28;20035;-75
2023/11/20 05:40:17;;;;;;;0.40;0.35;;;11.70;4.50;;;;;;5073098;28;20028;-75
2023/11/20 05:42:44;;;;;;;1.00;0.82;;;11.70;21.30;;;;;;5069025;28;20033;-75
2023/11/20 05:45:10;;;;;;;0.20;0.20;;;11.60;33.70;;;;;;5075622;28;20035;-75
2023/11/20 05:47:36;;;;;;;9.75;0.52;;;11.60;27.60;;;;;;5070845;28;20031;-76
2023/11/20 05:50:03;;;;;;;0.13;0.13;;;11.60;27.40;;;;;;5074587;28;20465;-77
2023/11/20 05:52:29;;;;;;;0.30;0.30;;;11.70;26.80;;;;;;5057793;28;20045;-77
2023/11/20 05:54:56;;;;;;;0.10;0.10;;;11.70;24.00;;;;;;5070820;28;20037;-78
2023/11/20 05:57:22;;;;;;;0.50;0.50;;;11.70;22.10;;;;;;5075790;28;20381;-77
2023/11/20 05:59:48;;;;;;;0.10;0.10;;;11.70;30.10;;;;;;5070009;28;20373;-78
2023/11/20 06:02:14;;;;;;;0.25;0.25;;;11.70;27.90;;;;;;5072892;28;20028;-77
2023/11/20 06:04:40;;;;;;;0.35;0.35;;;11.60;39.90;;;;;;5070562;28;20032;-78
2023/11/20 06:07:07;;;;;;;0.95;0.63;;;11.60;42.60;;;;;;5082316;28;20029;-77
2023/11/20 06:09:33;;;;;;;0.10;0.10;;;11.60;37.40;;;;;;5076216;28;20371;-78
2023/11/20 06:11:59;;;;;;;5.18;0.85;;;11.60;35.20;;;;;;5075548;28;20047;-77
2023/11/20 06:14:25;;;;;;;0.10;0.10;;;11.60;29.80;;;;;;5073770;28;20039;-77
2023/11/20 06:16:51;;;;;;;0.10;0.10;;;11.60;31.50;;;;;;5083006;28;20368;-78
2023/11/20 06:19:18;;;;;;;11.02;1.63;;;11.60;32.30;;;;;;5078333;28;20032;-75
2023/11/20 06:21:46;;;;;;;0.10;0.10;;;11.60;38.10;;;;;;5073105;28;20049;-75
2023/11/20 06:24:12;;;;;;;0.30;0.30;;;11.60;35.30;;;;;;5072214;28;20279;-76
2023/11/20 06:26:40;;;;;;;0.25;0.25;;;11.60;42.70;;;;;;5076952;28;20028;-75
2023/11/20 06:29:07;;;;;;;0.30;0.30;;;11.60;42.20;;;;;;5078114;28;20465;-76
2023/11/20 06:31:33;;;;;;;0.25;0.25;;;11.60;46.70;;;;;;5075779;28;20028;-74
2023/11/20 06:33:59;;;;;;;0.10;0.10;;;11.50;56.60;;;;;;5071685;28;20043;-75
2023/11/20 06:36:25;;;;;;;0.20;0.20;;;11.50;60.90;;;;;;5072511;28;20024;-76
2023/11/20 06:38:52;;;;;;;0.10;0.10;;;11.50;71.80;;;;;;5068027;28;20024;-78
2023/11/20 06:41:19;;;;;;;0.57;0.57;;;11.50;84.80;;;;;;5071696;28;20045;-76
2023/11/20 06:43:45;;;;;;;2.85;0.45;;;11.40;96.40;;;;;;5077625;28;20036;-76
2023/11/20 06:46:21;;;;;;;0.10;0.10;;;11.40;99.90;;;;;;5072025;28;20056;-76
2023/11/20 06:48:48;;;;;;;2.47;1.30;;;11.40;99.90;;;;;;5073123;28;20381;-76
2023/11/20 06:51:15;;;;;;;0.10;0.10;;;11.40;99.90;;;;;;5076622;28;20029;-77
2023/11/20 06:53:43;;;;;;;1.23;0.82;;;11.30;99.90;;;;;;5078695;28;20031;-76
2023/11/20 06:56:17;;;;;;;0.10;0.10;;;11.30;99.90;;;;;;5073902;28;20043;-76
2023/11/20 06:58:43;;;;;;;0.10;0.10;;;11.30;99.90;;;;;;5069397;28;20037;-76
2023/11/20 07:01:10;;;;;;;0.10;0.10;;;11.30;99.90;;;;;;5069232;28;20048;-75
2023/11/20 07:03:36;;;;;;;0.20;0.20;;;11.20;99.90;;;;;;5057945;28;20025;-75
2023/11/20 07:06:03;;;;;;;0.35;0.35;;;11.20;99.90;;;;;;5072240;28;20449;-76
2023/11/20 07:08:29;;;;;;;0.20;0.20;;;11.20;99.90;;;;;;5072024;28;20084;-77
2023/11/20 07:10:56;;;;;;;0.10;0.10;;;11.20;99.90;;;;;;5082261;28;20028;-77
2023/11/20 07:13:23;;;;;;;0.45;0.28;;;11.10;99.90;;;;;;5075219;28;20033;-76
2023/11/20 07:15:49;;;;;;;0.10;0.10;;;11.10;99.90;;;;;;5074041;28;20024;-76
2023/11/20 07:18:15;;;;;;;1.13;1.02;;;11.00;99.90;;;;;;5071073;28;20025;-77
2023/11/20 07:20:42;;;;;;;0.52;0.30;;;10.90;99.90;;;;;;5076627;28;20053;-77
2023/11/20 07:23:08;;;;;;;0.38;0.25;;;11.00;99.90;;;;;;5080534;28;20041;-77
2023/11/20 07:25:34;;;;;;;0.43;0.43;;;10.90;99.90;;;;;;5075050;28;20045;-77
2023/11/20 07:28:02;;;;;;;1.02;0.17;;;10.90;99.90;;;;;;5070026;28;20048;-78
2023/11/20 07:30:30;;;;;;;0.10;0.10;;;10.90;99.90;;;;;;5070930;28;20024;-78
2023/11/20 07:32:56;;;;;;;0.10;0.10;;;10.90;99.90;;;;;;5060847;28;20484;-78
2023/11/20 07:35:22;;;;;;;0.10;0.10;;;11.00;99.90;;;;;;5081578;28;20461;-77
2023/11/20 07:37:48;;;;;;;0.47;0.47;;;11.00;99.90;;;;;;5073144;28;20039;-78
2023/11/20 07:40:15;;;;;;;1.10;1.00;;;11.00;99.90;;;;;;5068049;28;20231;-76
2023/11/20 07:42:42;;;;;;;1.10;1.10;;;11.00;99.90;;;;;;5067996;28;20368;-78
2023/11/20 07:45:09;;;;;;;0.63;0.20;;;11.10;99.90;;;;;;5073477;28;20365;-78
2023/11/20 07:47:35;;;;;;;1.55;0.80;;;11.10;99.90;;;;;;5059181;28;20046;-78
2023/11/20 07:50:01;;;;;;;0.10;0.10;;;11.10;99.90;;;;;;5076756;28;20032;-75
2023/11/20 07:52:28;;;;;;;0.15;0.15;;;11.10;99.90;;;;;;5070130;28;20492;-77
2023/11/20 07:54:54;;;;;;;3.22;0.45;;;11.10;99.90;;;;;;5073794;28;20032;-77
2023/11/20 07:57:21;;;;;;;0.10;0.10;;;11.20;99.90;;;;;;5058315;28;20374;-76
2023/11/20 07:59:51;;;;;;;1.15;0.60;;;11.20;99.90;;;;;;5047028;28;20386;-76
2023/11/20 08:02:18;;;;;;;0.15;0.10;;;11.20;99.90;;;;;;5057422;28;20029;-76
2023/11/20 08:04:45;;;;;;;0.32;0.32;;;11.20;99.90;;;;;;5080210;28;20056;-75
2023/11/20 08:07:14;;;;;;;0.10;0.10;;;11.20;99.90;;;;;;5082291;28;20045;-76
2023/11/20 08:09:40;;;;;;;0.52;0.52;;;11.30;99.90;;;;;;5079421;28;20025;-78
2023/11/20 08:12:07;;;;;;;0.08;0.08;;;11.20;99.90;;;;;;5084340;28;20036;-77
2023/11/20 08:14:36;;;;;;;0.20;0.20;;;11.20;99.90;;;;;;5074540;28;20035;-77
2023/11/20 08:17:03;;;;;;;7.22;0.75;;;11.20;99.90;;;;;;5080704;28;20028;-77
2023/11/20 08:19:29;;;;;;;0.50;0.50;;;11.20;99.90;;;;;;5070060;28;20043;-77
2023/11/20 08:21:56;;;;;;;0.57;0.45;;;11.30;99.90;;;;;;5068418;28;20583;-75
2023/11/20 08:24:22;;;;;;;0.10;0.10;;;11.20;99.90;;;;;;5070162;28;20029;-78
2023/11/20 08:26:48;;;;;;;0.10;0.10;;;11.30;99.90;;;;;;5073014;28;20032;-77
2023/11/20 08:29:16;;;;;;;0.15;0.15;;;11.30;99.90;;;;;;5069796;28;20055;-78
2023/11/20 08:31:49;;;;;;;5.40;0.63;;;11.30;99.90;;;;;;5035598;28;20030;-78
2023/11/20 08:34:15;;;;;;;1.00;0.77;;;11.40;99.90;;;;;;5069692;28;20453;-78
2023/11/20 08:36:44;;;;;;;0.10;0.10;;;11.40;99.90;;;;;;5073013;28;20028;-78
2023/11/20 08:39:12;;;;;;;0.95;0.95;;;11.40;99.90;;;;;;5070932;28;20047;-77
2023/11/20 08:41:39;;;;;;;0.40;0.30;;;11.40;99.90;;;;;;5069140;28;20036;-78
2023/11/20 08:44:07;;;;;;;0.98;0.95;;;11.50;99.90;;;;;;5067187;28;20029;-78
2023/11/20 08:46:34;;;;;;;0.10;0.10;;;11.40;99.90;;;;;;5068548;28;20040;-76
2023/11/20 08:49:01;;;;;;;0.10;0.10;;;11.50;99.90;;;;;;5076460;28;20036;-78
2023/11/20 08:51:27;;;;;;;0.43;0.43;;;11.50;99.90;;;;;;5034498;28;20032;-77
2023/11/20 08:53:53;;;;;;;1.10;0.85;;;11.50;72.80;;;;;;5072489;28;20389;-77
2023/11/20 08:56:20;;;;;;;0.25;0.25;;;11.60;45.60;;;;;;5069885;28;20273;-76
2023/11/20 08:58:47;;;;;;;0.03;0.03;;;11.60;26.80;;;;;;5072548;28;20044;-77
2023/11/20 09:01:13;;;;;;;0.38;0.38;;;11.60;12.80;;;;;;5071681;28;20044;-77
2023/11/20 09:03:39;;;;;;;1.13;0.63;;;11.70;3.20;;;;;;5056062;28;20036;-76
2023/11/20 09:06:06;;;;;;;3.33;1.20;;;11.70;1.00;;;;;;5066622;28;20043;-76
2023/11/20 09:08:32;;;;;;;0.57;0.52;;;11.80;1.00;;;;;;5071257;28;20418;-76
2023/11/20 09:10:58;;;;;;;0.28;0.28;;;11.80;1.00;;;;;;5067157;28;20028;-75
2023/11/20 09:13:25;;;;;;;0.30;0.30;;;11.80;1.00;;;;;;5069410;28;20028;-76
2023/11/20 09:15:51;;;;;;;0.10;0.10;;;11.80;1.00;;;;;;5068921;28;20024;-76
2023/11/20 09:18:17;;;;;;;0.22;0.22;;;11.80;1.00;;;;;;5072142;28;20099;-76
2023/11/20 09:20:43;;;;;;;0.10;0.10;;;11.80;1.00;;;;;;5066064;28;20027;-74
2023/11/20 09:23:10;;;;;;;0.95;0.45;;;11.80;1.00;;;;;;5074390;28;20038;-77
2023/11/20 09:25:36;;;;;;;0.10;0.10;;;11.70;1.00;;;;;;5072751;28;20023;-77
2023/11/20 09:28:04;;;;;;;0.75;0.52;;;11.70;1.00;;;;;;5070086;28;20031;-77
2023/11/20 09:30:30;;;;;;;0.10;0.10;;;11.70;1.00;;;;;;5076972;28;20032;-74
2023/11/20 09:32:57;;;;;;;0.30;0.30;;;11.70;1.00;;;;;;5073331;28;20016;-77
2023/11/20 09:35:26;;;;;;;0.10;0.10;;;11.70;1.00;;;;;;5040598;28;20032;-78
2023/11/20 09:37:52;;;;;;;0.10;0.10;;;11.80;14.30;;;;;;5068348;28;20040;-74
2023/11/20 09:40:18;;;;;;;0.10;0.10;;;11.80;16.30;;;;;;5072826;28;20474;-77
2023/11/20 09:42:46;;;;;;;18.42;1.40;;;11.80;23.60;;;;;;5078404;28;20035;-77
2023/11/20 09:45:33;;;;;;;0.25;0.25;;;11.90;43.00;;;;;;5075883;28;20039;-76
2023/11/20 09:48:00;;;;;;;0.10;0.10;;;12.00;27.70;;;;;;5072435;28;20041;-76
2023/11/20 09:50:28;;;;;;;0.10;0.10;;;12.10;1.00;;;;;;5067219;28;20037;-76
2023/11/20 09:52:55;;;;;;;0.10;0.10;;;12.30;1.00;;;;;;5073929;28;20358;-76
2023/11/20 09:55:22;;;;;;;0.10;0.10;;;12.30;1.00;;;;;;5056515;28;20032;-74
2023/11/20 09:57:50;;;;;;;0.32;0.30;;;12.40;1.00;;;;;;5074714;28;20040;-77
2023/11/20 10:00:17;;;;;;;0.10;0.10;;;12.50;1.00;;;;;;5050172;28;20032;-77
2023/11/20 10:02:47;;;;;;;0.32;0.32;;;12.50;1.00;;;;;;5064794;28;20036;-77
2023/11/20 10:05:23;;;;;;;0.20;0.20;;;12.40;1.00;;;;;;5069729;28;20025;-77
2023/11/20 10:07:51;;;;;;;0.20;0.20;;;12.40;1.00;;;;;;5054904;28;20031;-77
2023/11/20 10:10:17;;;;;;;0.10;0.10;;;12.40;1.00;;;;;;5069778;28;20025;-77
2023/11/20 10:12:49;;;;;;;1.27;0.60;;;12.40;1.00;;;;;;5072999;28;20021;-75
2023/11/20 10:15:21;;;;;;;0.10;0.10;;;12.40;1.00;;;;;;5072472;28;20035;-77
2023/11/20 10:17:47;;;;;;;0.30;0.30;;;12.40;1.00;;;;;;5053586;28;20048;-77
2023/11/20 10:20:15;;;;;;;5.10;1.00;;;12.50;1.00;;;;;;5071472;28;20476;-77
2023/11/20 10:22:41;;;;;;;0.20;0.20;;;12.50;1.00;;;;;;5046148;28;20052;-77
2023/11/20 10:25:11;;;;;;;0.10;0.10;;;12.60;99.90;;;;;;5030526;28;20033;-75
2023/11/20 10:27:38;;;;;;;0.10;0.10;;;12.70;99.90;;;;;;5031023;28;20022;-77
2023/11/20 10:30:04;;;;;;;0.22;0.22;;;12.70;99.90;;;;;;5032624;28;20041;-74
2023/11/20 10:32:32;;;;;;;0.10;0.10;;;12.60;99.90;;;;;;5031355;28;20033;-77
2023/11/20 10:35:17;;;;;;;3.50;1.45;;;12.40;99.90;;;;;;5035019;28;20032;-79
2023/11/20 10:37:57;;;;;;;2.47;0.65;;;12.40;1.00;;;;;;5018014;28;20491;-76
2023/11/20 10:40:25;;;;;;;;;;;12.30;99.90;;;;;;5032293;28;20037;-76
2023/11/20 10:42:52;;;;;;;0.80;0.15;;;12.30;99.90;;;;;;5034201;28;19905;-77
2023/11/20 10:45:19;;;;;;;0.20;0.20;;;12.30;99.90;;;;;;5041570;28;20025;-76
2023/11/20 10:47:48;;;;;;;0.00;0.00;;;12.50;99.90;;;;;;5047278;28;20041;-76
2023/11/20 10:50:16;;;;;;;0.10;0.10;;;12.60;99.90;;;;;;5041519;28;20029;-77
2023/11/20 10:52:44;;;;;;;0.10;0.10;;;12.60;99.90;;;;;;5034530;28;20056;-77
2023/11/20 10:55:12;;;;;;;0.20;0.20;;;12.60;99.90;;;;;;5027569;28;20029;-77
2023/11/20 10:57:39;;;;;;;0.70;0.52;;;12.50;99.90;;;;;;5036115;28;20382;-77
2023/11/20 11:00:10;;;;;;;0.17;0.17;;;12.40;99.90;;;;;;5031308;28;20041;-76
2023/11/20 11:02:38;;;;;;;0.10;0.10;;;12.40;99.90;;;;;;5028358;28;20037;-77
2023/11/20 11:05:08;;;;;;;0.10;0.10;;;12.50;99.90;;;;;;5030600;28;20045;-76
2023/11/20 11:07:39;;;;;;;0.10;0.10;;;12.50;99.90;;;;;;5027044;28;20036;-76
2023/11/20 11:10:14;;;;;;;0.40;0.40;;;12.70;99.90;;;;;;5028301;28;20493;-77
2023/11/20 11:12:42;;;;;;;0.10;0.10;;;12.90;99.90;;;;;;5010661;28;20034;-76
2023/11/20 11:15:12;;;;;;;0.10;0.10;;;13.00;99.90;;;;;;5028934;28;20042;-76
2023/11/20 11:17:48;;;;;;;;;;;12.80;99.90;;;;;;5030564;28;20038;-75
2023/11/20 11:20:18;;;;;;;0.20;0.20;;;12.70;99.90;;;;;;5029834;28;19920;-75
2023/11/20 11:23:02;;;;;;;0.47;0.45;;;12.80;99.90;;;;;;5051890;28;20048;-75
2023/11/20 11:25:33;;;;;;;9.38;1.00;;;12.70;99.90;;;;;;5069411;28;20017;-75
2023/11/20 11:28:02;;;;;;;0.52;0.52;;;12.80;99.90;;;;;;5075290;28;20040;-75
2023/11/20 11:30:36;;;;;;;0.10;0.10;;;12.90;99.90;;;;;;5078780;28;20517;-75
2023/11/20 11:33:11;;;;;;;1.33;1.23;;;13.00;99.90;;;;;;5078139;28;20024;-75
2023/11/20 11:35:37;;;;;;;0.10;0.10;;;13.20;99.90;;;;;;5071578;28;20445;-75
2023/11/20 11:38:17;;;;;;;0.20;0.20;;;13.20;99.90;;;;;;5073111;28;20036;-76
2023/11/20 11:41:10;;;;;;;0.15;0.15;;;13.30;99.90;;;;;;5074794;28;20031;-76
2023/11/20 11:43:47;;;;;;;0.10;0.10;;;13.50;99.90;;;;;;5071729;28;20082;-75
2023/11/20 11:46:14;;;;;;;0.10;0.10;;;13.50;99.90;;;;;;5069377;28;20051;-75
2023/11/20 11:48:40;;;;;;;0.10;0.10;;;13.40;99.90;;;;;;5070768;28;20366;-76
2023/11/20 11:51:19;;;;;;;0.10;0.10;;;13.20;99.90;;;;;;5065488;28;20052;-76
2023/11/20 11:54:14;;;;;;;0.10;0.10;;;13.20;99.90;;;;;;5074596;28;20035;-75
2023/11/20 11:56:50;;;;;;;0.10;0.10;;;13.10;99.90;;;;;;5071138;28;20114;-75
2023/11/20 11:59:25;;;;;;;0.35;0.30;;;12.90;99.90;;;;;;5049813;28;20051;-75
2023/11/20 12:01:54;;;;;;;0.10;0.10;;;13.00;99.90;;;;;;5053035;28;20047;-75
2023/11/20 12:04:57;;;;;;;0.10;0.10;;;13.20;99.90;;;;;;5072287;28;20028;-75
2023/11/20 12:07:39;;;;;;;0.05;0.05;;;13.30;99.90;;;;;;5052106;28;20028;-75
2023/11/20 12:10:11;;;;;;;0.50;0.50;;;13.10;99.90;;;;;;5071573;28;20040;-75
2023/11/20 12:15:38;;;;;;;0.10;0.10;;;12.80;99.90;;;;;;5071327;28;20456;-73
2023/11/20 12:18:24;;;;;;;0.10;0.10;;;12.60;99.90;;;;;;5050777;28;20041;-77
2023/11/20 12:20:54;;;;;;;0.47;0.40;;;12.70;99.90;;;;;;5065344;28;20032;-77
2023/11/20 12:23:32;;;;;;;0.10;0.10;;;12.80;99.90;;;;;;5074083;28;20476;-75
2023/11/20 12:26:00;;;;;;;0.15;0.15;;;12.70;99.90;;;;;;5073479;28;20039;-76
2023/11/20 12:28:29;;;;;;;0.10;0.10;;;12.80;99.90;;;;;;5070709;28;20028;-76
2023/11/20 12:30:55;;;;;;;1.95;0.98;;;12.90;99.90;;;;;;5069108;28;20365;-76
2023/11/20 12:33:25;;;;;;;1.45;0.28;;;13.00;99.90;;;;;;5061992;28;20047;-75
2023/11/20 12:35:55;;;;;;;0.40;0.40;;;13.00;99.90;;;;;;5077168;28;20055;-76
2023/11/20 12:38:21;;;;;;;0.67;0.27;;;13.00;99.90;;;;;;5075117;28;20032;-76
2023/11/20 12:40:49;;;;;;;5.28;1.00;;;12.90;99.90;;;;;;5064737;28;20044;-76
2023/11/20 12:43:18;;;;;;;0.30;0.15;;;13.00;99.90;;;;;;5072777;28;20033;-76
2023/11/20 12:45:44;;;;;;;0.20;0.20;;;13.20;99.90;;;;;;5073129;28;20028;-76
2023/11/20 12:48:11;;;;;;;0.10;0.10;;;13.20;99.90;;;;;;5073188;28;20033;-76
2023/11/20 12:50:37;;;;;;;0.20;0.20;;;13.20;99.90;;;;;;5044795;28;20052;-76
2023/11/20 12:53:05;;;;;;;0.20;0.20;;;13.40;99.90;;;;;;5061978;28;20016;-76
2023/11/20 12:55:31;;;;;;;0.10;0.10;;;13.20;99.90;;;;;;5061050;28;20042;-76
2023/11/20 12:57:59;;;;;;;0.52;0.20;;;13.20;99.90;;;;;;5080408;28;20028;-77